Terminal Aerodrome Forecast
Issued by NWS Charleston, WV

Current Version | Previous Version | Graphics & Text | Print | Product List | Glossary On
Versions: 1 2 3 4 5 6 7 8 9 10 11 12 13 14 15 16 17 18 19 20 21 22 23 24 25
278
FTUS41 KRLX 190259 AAA
TAFHTS
TAF AMD
KHTS 190259Z 1903/1924 20004KT 6SM -RA BR FEW040 SCT050 OVC080
     FM190400 00000KT 4SM -SHRA OVC022
     FM191200 00000KT P6SM OVC024
     FM191800 27004KT P6SM SCT025=

USA.gov is the U.S. government's official web portal to all federal, state and local government web resources and services.